Terminal Aerodrome Forecast
Issued by NWS

Home | Current Version | Previous Version | Text Only | Print | Product List | Glossary On
Versions: 1 2 3 4 5 6 7 8 9 10 11 12 13
000
FTUS42 KGSP 181739
TAFAND
TAF
KAND 181739Z 1818/1918 22011G18KT P6SM FEW020 BKN040
     FM190200 21015G22KT P6SM VCSH BKN030
      TEMPO 1903/1906 4SM -SHRA OVC015
     FM190600 25017G26KT P6SM BKN040
     FM190900 28012KT P6SM SCT250=

USA.gov is the U.S. government's official web portal to all federal, state and local government web resources and services.